Pagina principale
METAR-TAF:

METAR-TAF

Aeroporti :

Contea di Ocean, New Jersey, Stati Uniti

latitudine: 39-55-39N, longitudine: 074-17-33W, altezza: 25 m

Osservazione

Il bollettino è stato emesso 8 minuti fa, alle 03:56 UTC
Vento calmo
Temperature 6°C
Umidità 87%
Pressione 1022 hPa
Visibilità: 16.1 km
Cielo sereno

METAR: KMJX 230356Z AUTO 00000KT 10SM CLR 06/04 A3019 RMK AO2 SLP230 T00560044

Ora: 00:04 (04:04 UTC)


TAF: mancante

Osservazioni e previsioni meteorologiche di più di 4000 aeroporti (messaggi METAR e TAF).

Le stazioni disponibili sono rappresentate dai dischi gialli e rossi sulla carta.

Puntare il mouse per vedere il nome della stazione.

Clicca sopra per visualizzare le osservazioni e previsioni meteorologiche.

Per cambiare la mappa : fare clic sui pulsanti verdi con una croce nera per ingrandire, il pulsante verde con un trattino per diminuire, o sulla freccia verde per le mappe adiacenti.


METAR-TAF: